Setif


Bulletin



L'aéroport de Setif (Algeria) a édité ce bulletin météorologique il y a 34 minutes, à 11:00 Africa/Algiers (10H00 UTC)
La température est de 16 °C, avec un point de rosée à 0 °C.
L'humidite relative est de 33.65 %.
La pression au niveau de la mer est de 1020 hPa.
Le vent souffle à une vitesse de 22 km/h du NNO (340°).


Message METAR

DAAS 161000Z 34012KT CAVOK 16/00 Q1020
Récupérer le message au format XML
Récupérer le message au format JSON


Observations sur 24h




Date (Locale) Temp. (°C) Point rosée (°C) Pression (hPa) Direction vent Vitesse (km/h)
11:00 16/04/2014 16 0 1020 NNO 22
10:00 16/04/2014 15 0 1020 NO 11
09:00 16/04/2014 14 2 1019 NO 19
08:00 16/04/2014 12 2 1019 ONO 11
07:00 16/04/2014 7 1 1018 N 0
05:00 16/04/2014 10 2 1018 ONO 15
04:00 16/04/2014 8 0 1018 NNO 7
03:00 16/04/2014 7 1 1018 NNO 15
02:00 16/04/2014 7 1 1018 NNO 11
01:00 16/04/2014 6 2 1019 NNO 11
00:00 16/04/2014 8 5 1019 ENE 4
23:00 15/04/2014 11 4 1018 SO 4
22:00 15/04/2014 12 6 1018 ESE 4
21:00 15/04/2014 15 6 1017 NNO 11
20:00 15/04/2014 16 7 1017 N 11
19:00 15/04/2014 17 7 1016 NNO 22
17:00 15/04/2014 19 9 1016 NNO 20
13:00 15/04/2014 22 8 1017 OSO 24
12:00 15/04/2014 22 8 1017 OSO 24
Les données de cette page proviennent des messages METAR de la NOAA